Time;durP1;ratioP1;P1;durP2;ratioP2;P2;SDS_P1;SDS_P2;PMS_P1;PMS_P2;Temp;Humidity;BMP_temperature;BMP_pressure;BME280_temperature;BME280_humidity;BME280_pressure;Samples;Min_cycle;Max_cycle;Signal;HPM_P1;HPM_P2
2021/03/19 00:00:29;;;;;;;2.50;2.30;;;6.50;55.80;;;;;;4973564;28;20488;-81
2021/03/19 00:02:55;;;;;;;4.68;2.55;;;6.50;55.90;;;;;;4988283;28;20047;-77
2021/03/19 00:05:23;;;;;;;3.03;2.60;;;6.40;55.90;;;;;;4971705;28;20042;-82
2021/03/19 00:07:54;;;;;;;4.13;2.80;;;6.40;56.10;;;;;;4972976;28;20027;-73
2021/03/19 00:10:26;;;;;;;4.03;2.57;;;6.40;56.10;;;;;;4976804;28;20122;-74
2021/03/19 00:12:53;;;;;;;3.08;2.75;;;6.50;56.20;;;;;;4976919;28;20109;-74
2021/03/19 00:15:24;;;;;;;2.40;2.20;;;6.50;56.00;;;;;;4977485;28;20035;-80
2021/03/19 00:17:51;;;;;;;3.15;2.85;;;6.40;56.40;;;;;;4977856;28;20440;-80
2021/03/19 00:20:16;;;;;;;5.90;2.92;;;6.50;56.50;;;;;;4977587;28;20031;-81
2021/03/19 00:22:42;;;;;;;2.88;2.67;;;6.60;56.40;;;;;;4986136;28;20388;-80
2021/03/19 00:25:10;;;;;;;2.78;2.58;;;6.60;56.20;;;;;;4960333;28;20415;-80
2021/03/19 00:27:35;;;;;;;2.70;2.50;;;6.70;56.40;;;;;;4977755;28;20109;-80
2021/03/19 00:30:04;;;;;;;2.60;2.40;;;6.70;56.60;;;;;;4977683;28;20158;-80
2021/03/19 00:32:30;;;;;;;2.75;2.55;;;6.60;56.60;;;;;;4977653;28;20109;-80
2021/03/19 00:34:56;;;;;;;2.60;2.40;;;6.60;56.60;;;;;;4995203;28;20073;-79
2021/03/19 00:37:21;;;;;;;3.17;2.88;;;6.60;56.30;;;;;;4996990;28;20034;-79
2021/03/19 00:39:47;;;;;;;3.22;2.67;;;6.60;56.20;;;;;;4996336;28;20485;-80
2021/03/19 00:42:13;;;;;;;4.63;2.65;;;6.60;56.60;;;;;;4979451;28;20553;-80
2021/03/19 00:44:41;;;;;;;6.15;2.90;;;6.60;56.80;;;;;;4981002;28;20033;-80
2021/03/19 00:47:07;;;;;;;3.50;2.60;;;6.60;56.70;;;;;;4977405;28;20023;-80
2021/03/19 00:49:34;;;;;;;2.97;2.63;;;6.70;56.50;;;;;;4960015;28;20052;-80
2021/03/19 00:51:59;;;;;;;2.70;2.45;;;6.70;56.40;;;;;;4977215;28;20077;-80
2021/03/19 00:54:25;;;;;;;4.78;3.33;;;6.70;56.60;;;;;;4978190;28;20022;-80
2021/03/19 00:56:51;;;;;;;3.78;2.45;;;6.70;56.60;;;;;;4970438;28;20473;-80
2021/03/19 00:59:17;;;;;;;2.92;2.70;;;6.70;56.60;;;;;;4959598;28;20031;-80
2021/03/19 01:01:43;;;;;;;3.53;2.60;;;6.70;56.70;;;;;;4985295;28;20069;-80
2021/03/19 01:04:09;;;;;;;4.18;2.70;;;6.70;56.90;;;;;;4996433;28;20030;-80
2021/03/19 01:06:34;;;;;;;3.13;2.88;;;6.70;57.40;;;;;;4996298;28;20392;-80
2021/03/19 01:09:00;;;;;;;3.08;2.33;;;6.70;57.90;;;;;;4996384;28;20392;-80
2021/03/19 01:11:27;;;;;;;3.35;3.03;;;6.70;58.40;;;;;;4996389;28;20058;-80
2021/03/19 01:13:53;;;;;;;7.57;2.92;;;6.70;58.90;;;;;;4981689;28;20026;-81
2021/03/19 01:16:19;;;;;;;4.38;2.72;;;6.70;58.80;;;;;;4976750;28;20030;-80
2021/03/19 01:18:45;;;;;;;3.33;2.78;;;6.50;60.20;;;;;;4959447;28;20089;-80
2021/03/19 01:21:11;;;;;;;3.03;2.72;;;6.50;61.00;;;;;;4976281;28;20631;-80
2021/03/19 01:23:37;;;;;;;4.03;3.00;;;6.50;60.50;;;;;;4959238;28;20022;-80
2021/03/19 01:26:03;;;;;;;3.53;3.22;;;6.40;60.20;;;;;;4959205;28;20031;-80
2021/03/19 01:28:28;;;;;;;3.45;2.90;;;6.40;60.20;;;;;;4976411;28;20118;-80
2021/03/19 01:30:54;;;;;;;3.65;3.35;;;6.40;60.60;;;;;;4976555;28;20081;-80
2021/03/19 01:33:21;;;;;;;4.65;3.58;;;6.30;61.10;;;;;;4976403;28;20037;-80
2021/03/19 01:35:46;;;;;;;3.65;3.28;;;6.30;61.20;;;;;;4976443;28;20037;-80
2021/03/19 01:38:12;;;;;;;5.13;2.90;;;6.30;61.20;;;;;;4976297;28;20035;-81
2021/03/19 01:40:44;;;;;;;3.70;3.17;;;6.30;61.60;;;;;;4976339;28;20027;-80
2021/03/19 01:43:24;;;;;;;5.18;2.90;;;6.30;61.00;;;;;;4976197;28;20437;-81
2021/03/19 01:46:32;;;;;;;5.03;4.00;;;6.30;61.60;;;;;;4976279;28;20023;-80
2021/03/19 01:49:35;;;;;;;7.55;3.88;;;6.00;62.00;;;;;;4978860;28;20026;-81
2021/03/19 01:52:19;;;;;;;;;;;6.10;62.50;;;;;;4996024;28;20488;-80
2021/03/19 01:55:22;;;;;;;8.20;4.45;;;6.10;62.80;;;;;;4978036;28;19927;-80
2021/03/19 01:58:25;;;;;;;14.25;5.88;;;6.10;64.00;;;;;;4995297;28;20065;-80
2021/03/19 02:01:09;;;;;;;;;;;6.10;62.30;;;;;;4995590;28;20068;-81
2021/03/19 02:04:22;;;;;;;10.63;5.65;;;6.00;62.60;;;;;;4995350;28;19964;-81
2021/03/19 02:07:06;;;;;;;;;;;6.00;63.30;;;;;;4936306;28;20038;-80
2021/03/19 02:10:08;;;;;;;8.30;4.82;;;6.00;64.10;;;;;;4995140;28;19906;-81
2021/03/19 02:12:52;;;;;;;;;;;6.10;64.10;;;;;;4995587;28;20081;-80
2021/03/19 02:15:56;;;;;;;5.93;4.85;;;6.10;63.20;;;;;;4995172;28;19906;-80
2021/03/19 02:18:59;;;;;;;5.97;4.65;;;6.10;63.50;;;;;;4977616;28;20366;-81
2021/03/19 02:22:02;;;;;;;4.95;4.38;;;6.10;63.80;;;;;;4995061;28;20023;-80
2021/03/19 02:25:05;;;;;;;7.93;4.25;;;6.10;63.90;;;;;;4994950;28;20484;-81
2021/03/19 02:28:10;;;;;;;5.80;4.10;;;6.20;63.70;;;;;;4994931;28;20030;-81
2021/03/19 02:31:12;;;;;;;6.03;4.13;;;6.20;64.40;;;;;;4964525;28;20069;-81
2021/03/19 02:33:46;;;;;;;4.80;4.30;;;6.10;65.20;;;;;;4977074;28;20443;-81
2021/03/19 02:36:16;;;;;;;5.43;4.43;;;6.10;64.90;;;;;;4971705;28;20061;-80
2021/03/19 02:38:42;;;;;;;6.35;4.38;;;6.10;64.80;;;;;;4975255;28;20110;-81
2021/03/19 02:41:07;;;;;;;8.38;4.40;;;6.10;65.90;;;;;;4975145;28;20105;-81
2021/03/19 02:43:33;;;;;;;5.80;4.25;;;6.10;66.30;;;;;;4957529;28;20027;-81
2021/03/19 02:45:59;;;;;;;5.95;4.40;;;6.10;66.30;;;;;;4975246;28;20101;-80
2021/03/19 02:48:25;;;;;;;6.90;4.68;;;6.10;66.20;;;;;;4975274;28;20095;-80
2021/03/19 02:50:51;;;;;;;5.88;3.85;;;6.10;66.30;;;;;;4957827;28;20027;-80
2021/03/19 02:53:21;;;;;;;6.78;4.50;;;6.10;67.00;;;;;;4974732;28;20031;-80
2021/03/19 02:55:47;;;;;;;4.28;3.88;;;6.10;66.40;;;;;;4957677;28;20066;-80
2021/03/19 02:58:13;;;;;;;7.55;4.65;;;6.10;66.90;;;;;;4974490;28;20023;-80
2021/03/19 03:00:40;;;;;;;7.07;4.28;;;6.00;67.20;;;;;;4974892;28;20058;-81
2021/03/19 03:03:06;;;;;;;6.85;4.45;;;6.00;67.00;;;;;;4974846;28;20649;-81
2021/03/19 03:05:32;;;;;;;5.03;4.10;;;6.10;66.90;;;;;;4992640;28;20050;-81
2021/03/19 03:07:58;;;;;;;4.55;4.15;;;6.10;67.00;;;;;;4976752;28;20030;-81
2021/03/19 03:10:26;;;;;;;5.18;3.85;;;6.10;67.60;;;;;;4964322;28;20031;-81
2021/03/19 03:12:52;;;;;;;5.45;3.85;;;6.00;67.50;;;;;;4974513;28;20035;-81
2021/03/19 03:15:19;;;;;;;4.82;3.33;;;6.00;68.00;;;;;;4975771;28;20034;-81
2021/03/19 03:17:46;;;;;;;5.90;4.22;;;6.00;67.40;;;;;;4968010;28;20039;-81
2021/03/19 03:20:20;;;;;;;4.45;4.00;;;6.00;67.40;;;;;;4957213;28;20134;-81
2021/03/19 03:22:45;;;;;;;7.32;4.35;;;6.00;67.70;;;;;;4974356;28;20027;-81
2021/03/19 03:25:14;;;;;;;6.97;4.20;;;5.90;68.30;;;;;;4973214;28;20033;-81
2021/03/19 03:27:40;;;;;;;5.05;4.43;;;5.80;68.60;;;;;;4974489;28;20034;-81
2021/03/19 03:30:13;;;;;;;4.13;3.72;;;5.80;69.30;;;;;;4974215;28;20425;-80
2021/03/19 03:32:38;;;;;;;5.30;3.65;;;5.80;69.40;;;;;;4974370;28;20429;-81
2021/03/19 03:35:05;;;;;;;4.97;3.85;;;5.80;69.20;;;;;;4969358;28;20077;-81
2021/03/19 03:37:31;;;;;;;5.43;3.90;;;5.80;68.90;;;;;;4974318;28;20173;-80
2021/03/19 03:39:57;;;;;;;3.33;3.03;;;5.90;68.70;;;;;;4974116;28;20096;-81
2021/03/19 03:42:23;;;;;;;3.78;3.38;;;5.90;68.50;;;;;;4956833;28;20054;-81
2021/03/19 03:44:49;;;;;;;4.30;3.88;;;5.90;68.30;;;;;;4974078;28;20154;-81
2021/03/19 03:47:14;;;;;;;3.78;3.42;;;5.90;68.00;;;;;;4974217;28;20023;-81
2021/03/19 03:49:40;;;;;;;5.38;3.22;;;5.90;68.00;;;;;;4974241;28;20031;-81
2021/03/19 03:52:06;;;;;;;3.63;3.33;;;5.90;68.00;;;;;;4974197;28;20027;-81
2021/03/19 03:54:31;;;;;;;3.20;2.90;;;5.90;67.70;;;;;;4973990;28;20027;-81
2021/03/19 03:56:57;;;;;;;5.00;3.50;;;5.90;68.10;;;;;;4974035;28;20027;-80
2021/03/19 03:59:23;;;;;;;2.85;2.58;;;5.80;67.60;;;;;;4974070;28;20563;-81
2021/03/19 04:01:49;;;;;;;2.88;2.67;;;5.80;67.30;;;;;;4973884;28;20071;-81
2021/03/19 04:04:18;;;;;;;2.88;2.67;;;5.90;67.10;;;;;;4973973;28;20054;-81
2021/03/19 04:06:44;;;;;;;2.90;2.70;;;5.90;66.90;;;;;;4973998;28;20495;-79
2021/03/19 04:09:10;;;;;;;2.90;2.70;;;6.00;66.70;;;;;;4974034;28;20031;-81
2021/03/19 04:11:36;;;;;;;3.53;3.22;;;6.00;66.50;;;;;;4974045;28;20054;-81
2021/03/19 04:14:01;;;;;;;4.18;3.47;;;6.00;66.70;;;;;;4973239;28;20027;-81
2021/03/19 04:16:28;;;;;;;3.40;3.00;;;5.90;67.10;;;;;;4960836;28;20528;-81
2021/03/19 04:18:54;;;;;;;3.05;2.85;;;5.90;66.90;;;;;;4954635;28;20481;-81
2021/03/19 04:21:20;;;;;;;4.60;2.65;;;5.90;66.20;;;;;;4954625;28;20027;-80
2021/03/19 04:23:47;;;;;;;4.22;3.30;;;5.80;65.80;;;;;;4966629;28;20041;-81
2021/03/19 04:26:30;;;;;;;3.67;2.40;;;5.80;66.50;;;;;;4972182;28;20035;-81
2021/03/19 04:28:56;;;;;;;3.40;3.10;;;5.80;66.60;;;;;;4955021;28;20486;-80
2021/03/19 04:31:22;;;;;;;4.50;3.35;;;5.80;67.00;;;;;;4954452;29;20019;-81
2021/03/19 04:33:50;;;;;;;4.20;3.00;;;5.80;66.70;;;;;;4954345;28;20058;-82
2021/03/19 04:36:43;;;;;;;3.47;2.60;;;5.80;66.60;;;;;;4953237;29;20039;-81
2021/03/19 04:39:14;;;;;;;3.72;2.70;;;5.80;66.20;;;;;;4955844;28;20038;-81
2021/03/19 04:41:46;;;;;;;3.50;2.45;;;5.70;65.90;;;;;;4956483;28;20022;-81
2021/03/19 04:44:12;;;;;;;3.10;2.90;;;5.70;66.30;;;;;;4962491;28;20027;-80
2021/03/19 04:46:38;;;;;;;4.43;2.80;;;5.70;66.90;;;;;;4953158;29;20019;-80
2021/03/19 04:49:04;;;;;;;3.45;2.50;;;5.70;67.20;;;;;;4954361;28;20114;-80
2021/03/19 04:51:30;;;;;;;3.00;2.72;;;5.60;67.60;;;;;;4954412;28;20027;-80
2021/03/19 04:53:57;;;;;;;3.13;2.85;;;5.60;66.50;;;;;;4952985;28;20126;-80
2021/03/19 04:56:24;;;;;;;3.55;3.13;;;5.60;66.50;;;;;;4957165;28;20434;-81
2021/03/19 04:58:50;;;;;;;3.63;3.20;;;5.60;66.70;;;;;;4957642;28;20024;-80
2021/03/19 05:01:17;;;;;;;3.60;3.10;;;5.60;66.90;;;;;;4967289;28;20038;-81
2021/03/19 05:03:43;;;;;;;4.72;2.83;;;5.50;66.50;;;;;;4996220;28;20027;-81
2021/03/19 05:06:09;;;;;;;3.22;2.92;;;5.50;66.70;;;;;;4996467;28;20018;-81
2021/03/19 05:08:35;;;;;;;5.28;3.10;;;5.50;66.30;;;;;;4996324;28;20061;-81
2021/03/19 05:11:01;;;;;;;3.08;2.78;;;5.50;66.30;;;;;;4961382;28;20070;-80
2021/03/19 05:13:27;;;;;;;3.03;2.83;;;5.50;66.50;;;;;;4976742;28;20109;-80
2021/03/19 05:15:52;;;;;;;3.33;3.03;;;5.40;66.20;;;;;;4976771;28;20485;-81
2021/03/19 05:18:18;;;;;;;4.20;2.70;;;5.50;66.00;;;;;;4976325;28;20178;-81
2021/03/19 05:20:44;;;;;;;6.05;3.10;;;5.40;66.10;;;;;;4976238;28;20106;-80
2021/03/19 05:23:23;;;;;;;4.18;2.85;;;5.40;66.10;;;;;;4975556;28;20027;-81
2021/03/19 05:25:50;;;;;;;20.85;3.33;;;5.30;66.40;;;;;;4977665;28;20086;-79
2021/03/19 05:28:20;;;;;;;7.47;3.53;;;5.30;66.40;;;;;;4978025;28;20058;-80
2021/03/19 05:30:52;;;;;;;3.40;2.95;;;5.30;66.30;;;;;;4994919;28;20068;-80
2021/03/19 05:33:18;;;;;;;5.55;2.97;;;5.30;66.10;;;;;;4978627;28;20050;-80
2021/03/19 05:35:44;;;;;;;3.03;2.72;;;5.40;66.20;;;;;;4976956;28;20485;-80
2021/03/19 05:38:10;;;;;;;4.82;2.95;;;5.30;66.20;;;;;;4975153;28;20034;-80
2021/03/19 05:40:42;;;;;;;5.57;2.92;;;5.30;66.20;;;;;;4979164;28;20445;-80
2021/03/19 05:43:23;;;;;;;4.63;3.40;;;5.30;66.00;;;;;;4958443;28;20027;-80
2021/03/19 05:46:06;;;;;;;3.47;3.17;;;5.30;66.20;;;;;;4966350;28;20551;-80
2021/03/19 05:48:42;;;;;;;3.90;2.72;;;5.30;66.30;;;;;;4957066;29;20498;-81
2021/03/19 05:51:34;;;;;;;3.10;2.80;;;5.20;66.30;;;;;;4939820;29;20027;-81
2021/03/19 05:54:14;;;;;;;7.70;3.20;;;5.20;66.50;;;;;;4939598;29;20389;-81
2021/03/19 05:56:41;;;;;;;5.63;3.35;;;5.10;66.60;;;;;;4939680;29;20437;-80
2021/03/19 05:59:07;;;;;;;3.17;2.55;;;5.10;66.60;;;;;;4956702;29;20039;-80
2021/03/19 06:01:35;;;;;;;5.93;3.47;;;5.10;66.70;;;;;;4956558;29;20569;-81
2021/03/19 06:04:01;;;;;;;7.75;3.10;;;5.10;66.60;;;;;;4939483;29;20032;-81
2021/03/19 06:06:54;;;;;;;3.75;2.80;;;5.10;66.50;;;;;;4938262;29;20058;-81
2021/03/19 06:09:28;;;;;;;6.45;3.00;;;5.20;66.40;;;;;;4960705;28;20034;-81
2021/03/19 06:11:58;;;;;;;3.70;2.78;;;5.20;66.50;;;;;;4975704;28;20038;-81
2021/03/19 06:14:25;;;;;;;4.88;2.50;;;5.10;66.60;;;;;;4964997;28;20053;-81
2021/03/19 06:16:57;;;;;;;4.55;2.65;;;5.10;66.50;;;;;;4992264;28;20042;-81
2021/03/19 06:19:50;;;;;;;4.80;3.00;;;5.10;66.40;;;;;;4995052;28;20109;-80
2021/03/19 06:22:16;;;;;;;5.60;3.22;;;5.20;66.60;;;;;;4977509;28;20037;-81
2021/03/19 06:24:44;;;;;;;10.60;3.40;;;5.20;66.70;;;;;;4977160;28;20453;-81
2021/03/19 06:27:24;;;;;;;9.02;3.47;;;5.20;66.20;;;;;;4994826;28;20400;-80
2021/03/19 06:29:56;;;;;;;5.88;3.70;;;5.20;66.20;;;;;;4994835;28;20044;-81
2021/03/19 06:32:24;;;;;;;;;;;5.20;66.30;;;;;;4994994;28;20026;-74
2021/03/19 06:35:05;;;;;;;5.70;3.03;;;5.30;66.40;;;;;;4986601;28;19917;-74
2021/03/19 06:37:37;;;;;;;4.75;3.10;;;5.20;66.60;;;;;;4956298;28;20493;-74
2021/03/19 06:40:28;;;;;;;11.65;3.50;;;5.30;66.80;;;;;;4973436;28;20031;-74
2021/03/19 06:42:53;;;;;;;12.55;3.83;;;5.40;66.60;;;;;;4964827;28;20045;-74
2021/03/19 06:45:23;;;;;;;7.40;3.45;;;5.40;65.90;;;;;;4975336;28;20038;-74
2021/03/19 06:47:57;;;;;;;8.32;3.65;;;5.50;65.70;;;;;;4985511;28;20027;-74
2021/03/19 06:50:23;;;;;;;7.25;3.50;;;5.60;65.30;;;;;;4974728;28;20041;-74
2021/03/19 06:53:11;;;;;;;9.80;3.67;;;5.70;65.00;;;;;;4974684;28;20109;-73
2021/03/19 06:55:45;;;;;;;11.50;4.72;;;5.80;64.50;;;;;;4974460;28;20031;-74
2021/03/19 06:58:11;;;;;;;17.13;4.05;;;5.90;64.20;;;;;;4974598;28;20025;-74
2021/03/19 07:00:41;;;;;;;15.85;3.83;;;5.90;64.00;;;;;;4973176;28;20389;-74
2021/03/19 07:03:34;;;;;;;15.57;4.35;;;5.90;63.60;;;;;;4974585;28;20085;-74
2021/03/19 07:06:15;;;;;;;6.50;3.15;;;6.00;63.70;;;;;;4957091;28;20029;-74
2021/03/19 07:08:55;;;;;;;10.10;3.47;;;6.10;63.90;;;;;;4974429;28;20030;-74
2021/03/19 07:11:32;;;;;;;8.77;3.30;;;6.10;63.30;;;;;;4954788;29;20109;-74
2021/03/19 07:14:12;;;;;;;7.90;3.53;;;6.20;63.30;;;;;;4955099;29;20470;-74
2021/03/19 07:16:56;;;;;;;6.97;3.67;;;6.20;62.90;;;;;;4966313;28;20078;-74
2021/03/19 07:19:31;;;;;;;6.45;3.35;;;6.30;62.40;;;;;;4973687;28;20433;-74
2021/03/19 07:22:00;;;;;;;21.88;4.97;;;6.40;62.60;;;;;;4974285;28;20027;-74
2021/03/19 07:24:29;;;;;;;21.33;5.25;;;6.40;62.50;;;;;;4956549;28;20113;-74
2021/03/19 07:27:33;;;;;;;14.45;3.58;;;6.50;62.40;;;;;;4974179;28;20037;-74
2021/03/19 07:30:20;;;;;;;8.98;4.72;;;6.60;62.40;;;;;;4942723;28;20062;-74
2021/03/19 07:33:14;;;;;;;3.65;3.17;;;6.60;61.70;;;;;;4973979;28;20050;-74
2021/03/19 07:36:04;;;;;;;3.65;3.20;;;6.70;61.20;;;;;;4973691;28;20077;-74
2021/03/19 07:38:56;;;;;;;5.07;3.15;;;6.70;61.00;;;;;;4979894;28;20074;-74
2021/03/19 07:41:53;;;;;;;4.85;3.70;;;6.80;60.50;;;;;;4972268;28;20030;-74
2021/03/19 07:44:43;;;;;;;5.85;3.75;;;6.80;59.90;;;;;;4937306;28;20125;-74
2021/03/19 07:47:27;;;;;;;3.45;3.05;;;6.90;60.00;;;;;;4975134;28;20058;-74
2021/03/19 07:50:31;;;;;;;6.10;3.00;;;6.90;59.80;;;;;;4963226;28;20550;-74
2021/03/19 07:53:21;;;;;;;3.00;2.80;;;6.90;60.80;;;;;;4924999;28;20599;-74
2021/03/19 07:55:56;;;;;;;3.40;3.05;;;7.00;61.90;;;;;;4980165;28;20031;-74
2021/03/19 07:58:36;;;;;;;4.35;2.65;;;7.10;62.40;;;;;;4963598;28;20019;-74
2021/03/19 08:01:36;;;;;;;4.30;2.80;;;7.10;61.10;;;;;;4953458;28;20048;-74
2021/03/19 08:04:10;;;;;;;2.60;2.40;;;7.20;62.70;;;;;;4971115;28;20106;-74
2021/03/19 08:06:42;;;;;;;2.38;2.25;;;7.30;61.20;;;;;;4961465;28;20034;-80
2021/03/19 08:09:24;;;;;;;3.05;2.72;;;7.20;59.20;;;;;;4971186;28;20026;-80
2021/03/19 08:11:59;;;;;;;2.72;2.53;;;7.20;59.30;;;;;;4975235;28;20085;-81
2021/03/19 08:14:58;;;;;;;4.00;3.17;;;7.30;60.10;;;;;;4979050;28;20031;-79
2021/03/19 08:17:51;;;;;;;8.70;3.28;;;7.30;59.80;;;;;;4974885;28;20038;-80
2021/03/19 08:20:37;;;;;;;4.43;3.38;;;7.40;61.00;;;;;;4970984;28;20106;-79
2021/03/19 08:23:32;;;;;;;5.28;2.97;;;7.60;61.20;;;;;;4977701;28;20030;-80
2021/03/19 08:25:58;;;;;;;4.63;3.25;;;7.70;60.20;;;;;;4975337;28;20033;-80
2021/03/19 08:28:38;;;;;;;5.10;3.65;;;7.80;61.30;;;;;;4953072;28;20023;-80
2021/03/19 08:31:42;;;;;;;4.35;3.28;;;7.60;59.70;;;;;;4954867;28;20677;-80
2021/03/19 08:34:16;;;;;;;4.82;3.53;;;7.70;60.20;;;;;;4956223;28;20058;-81
2021/03/19 08:36:53;;;;;;;4.85;3.67;;;7.70;61.30;;;;;;4974415;28;20049;-80
2021/03/19 08:39:23;;;;;;;7.07;3.80;;;7.80;61.30;;;;;;4961075;28;20382;-80
2021/03/19 08:41:53;;;;;;;3.55;3.15;;;7.80;60.80;;;;;;4958976;28;20496;-75
2021/03/19 08:44:34;;;;;;;4.03;3.72;;;7.80;59.40;;;;;;4951796;28;20026;-75
2021/03/19 08:47:25;;;;;;;7.57;3.67;;;7.80;59.20;;;;;;4972726;28;20023;-74
2021/03/19 08:49:57;;;;;;;3.92;3.40;;;7.90;60.90;;;;;;4972925;28;20117;-74
2021/03/19 08:52:36;;;;;;;6.35;3.35;;;7.90;60.00;;;;;;4978780;28;20516;-74
2021/03/19 08:55:17;;;;;;;5.30;3.22;;;7.90;59.40;;;;;;4956788;28;20034;-74
2021/03/19 08:57:49;;;;;;;4.45;3.58;;;7.90;59.20;;;;;;4976750;28;20400;-74
2021/03/19 09:00:49;;;;;;;3.67;3.30;;;7.90;59.30;;;;;;4962311;28;20030;-74
2021/03/19 09:03:36;;;;;;;7.07;3.90;;;8.00;61.30;;;;;;4976732;28;20374;-75
2021/03/19 09:06:05;;;;;;;4.30;3.90;;;8.00;61.70;;;;;;4974432;28;20026;-74
2021/03/19 09:09:09;;;;;;;5.70;3.70;;;8.00;61.20;;;;;;4978063;28;20035;-74
2021/03/19 09:11:38;;;;;;;5.22;4.13;;;8.10;61.50;;;;;;4957001;28;20027;-75
2021/03/19 09:14:04;;;;;;;5.53;4.60;;;8.00;61.30;;;;;;4976089;28;20019;-81
2021/03/19 09:16:40;;;;;;;7.28;4.93;;;8.00;61.20;;;;;;4960991;28;20030;-81
2021/03/19 09:19:40;;;;;;;5.05;4.55;;;8.00;62.00;;;;;;4969499;28;20026;-74
2021/03/19 09:22:50;;;;;;;;;;;;;;;;;;;;;
2021/03/19 09:25:22;;;;;;;6.88;4.93;;;8.00;64.30;;;;;;4956540;28;20027;-79
2021/03/19 09:28:11;;;;;;;6.90;5.82;;;8.10;64.40;;;;;;4954516;28;20122;-79
2021/03/19 09:30:41;;;;;;;5.28;4.72;;;8.10;63.70;;;;;;4973073;28;20559;-79
2021/03/19 09:33:31;;;;;;;7.32;5.15;;;8.10;64.90;;;;;;4970717;28;20027;-75
2021/03/19 09:35:56;;;;;;;7.70;4.60;;;8.10;63.90;;;;;;4955617;28;20121;-79
2021/03/19 09:38:22;;;;;;;8.25;6.05;;;8.00;65.00;;;;;;4955348;28;20454;-78
2021/03/19 09:40:53;;;;;;;10.57;5.05;;;8.00;66.80;;;;;;4953537;28;20533;-78
2021/03/19 09:43:46;;;;;;;6.22;5.10;;;8.10;67.20;;;;;;4975359;28;20058;-75
2021/03/19 09:46:15;;;;;;;7.13;5.38;;;8.20;67.10;;;;;;4972640;28;20026;-74
2021/03/19 09:48:55;;;;;;;4.80;4.30;;;8.30;67.30;;;;;;4978497;28;20468;-75
2021/03/19 09:51:53;;;;;;;8.50;5.47;;;8.40;67.50;;;;;;4972531;28;20037;-74
2021/03/19 09:54:19;;;;;;;7.90;5.50;;;8.40;67.50;;;;;;4973011;28;20027;-75
2021/03/19 09:56:46;;;;;;;10.55;7.28;;;8.40;67.70;;;;;;4968324;28;20034;-75
2021/03/19 09:59:23;;;;;;;8.18;5.55;;;8.20;67.90;;;;;;4951111;28;20258;-75
2021/03/19 10:01:52;;;;;;;9.45;6.40;;;8.30;70.00;;;;;;4969601;28;20042;-81
2021/03/19 10:04:37;;;;;;;9.10;5.05;;;8.40;70.40;;;;;;4964410;28;20030;-80
2021/03/19 10:07:15;;;;;;;4.93;4.25;;;8.30;70.60;;;;;;4959964;28;20031;-78
2021/03/19 10:09:50;;;;;;;4.10;3.40;;;8.20;70.10;;;;;;4958036;28;20039;-74
2021/03/19 10:12:21;;;;;;;3.92;3.60;;;8.30;70.40;;;;;;4958824;28;20031;-78
2021/03/19 10:14:53;;;;;;;6.30;3.22;;;8.40;70.10;;;;;;4951456;28;20028;-79
2021/03/19 10:17:24;;;;;;;3.70;3.30;;;8.30;68.60;;;;;;4950376;28;20540;-74
2021/03/19 10:20:12;;;;;;;4.45;4.05;;;8.50;70.70;;;;;;4951618;28;20039;-74
2021/03/19 10:22:51;;;;;;;3.25;2.80;;;8.50;69.20;;;;;;4963316;28;20109;-78
2021/03/19 10:25:34;;;;;;;2.70;2.50;;;8.60;69.20;;;;;;4946262;28;20035;-78
2021/03/19 10:28:22;;;;;;;2.75;2.55;;;8.60;67.60;;;;;;4954951;28;20027;-78
2021/03/19 10:31:10;;;;;;;4.07;3.67;;;8.60;66.00;;;;;;4955659;28;20035;-80
2021/03/19 10:33:47;;;;;;;3.08;2.45;;;8.60;64.30;;;;;;4957614;28;20034;-78
2021/03/19 10:36:33;;;;;;;3.17;2.78;;;8.50;65.60;;;;;;4952975;28;20046;-74
2021/03/19 10:39:08;;;;;;;4.03;3.10;;;8.50;65.60;;;;;;4949537;28;20023;-74
2021/03/19 10:41:51;;;;;;;2.95;2.75;;;8.30;66.70;;;;;;4952616;28;20438;-71
2021/03/19 10:44:21;;;;;;;3.25;2.95;;;8.20;68.20;;;;;;4949732;28;20042;-74
2021/03/19 10:46:52;;;;;;;2.38;2.25;;;8.30;69.70;;;;;;4952530;28;20027;-79
2021/03/19 10:49:46;;;;;;;3.20;2.88;;;8.30;69.80;;;;;;4950288;28;20049;-78
2021/03/19 10:52:38;;;;;;;3.92;3.50;;;8.20;69.20;;;;;;4950007;28;20085;-78
2021/03/19 10:55:15;;;;;;;4.55;4.15;;;8.10;68.90;;;;;;4951864;28;20045;-77
2021/03/19 10:57:44;;;;;;;4.22;3.75;;;8.10;70.30;;;;;;4949125;28;20027;-77
2021/03/19 11:00:31;;;;;;;4.63;4.22;;;8.10;69.70;;;;;;4948251;29;20546;-81
2021/03/19 11:03:05;;;;;;;5.72;4.10;;;8.00;71.00;;;;;;4933057;28;20067;-79
2021/03/19 11:05:33;;;;;;;5.78;5.13;;;8.10;71.90;;;;;;4958104;28;20128;-77
2021/03/19 11:08:16;;;;;;;5.80;5.20;;;8.00;72.10;;;;;;4948209;28;20031;-77
2021/03/19 11:10:42;;;;;;;6.68;5.35;;;7.70;73.40;;;;;;4946855;28;20039;-77
2021/03/19 11:13:08;;;;;;;6.32;5.32;;;7.80;74.30;;;;;;4956563;28;20126;-78
2021/03/19 11:15:33;;;;;;;8.02;5.35;;;7.80;75.60;;;;;;4948818;28;20702;-75
2021/03/19 11:18:26;;;;;;;5.60;5.10;;;7.70;76.60;;;;;;4951962;28;20122;-74
2021/03/19 11:20:54;;;;;;;6.05;4.53;;;7.70;77.00;;;;;;4948404;28;20035;-74
2021/03/19 11:23:41;;;;;;;6.15;4.97;;;7.80;77.80;;;;;;4952183;28;20023;-74
2021/03/19 11:26:33;;;;;;;8.57;5.18;;;7.70;77.60;;;;;;4956239;28;20906;-74
2021/03/19 11:29:14;;;;;;;6.63;5.07;;;7.70;77.30;;;;;;4952605;28;20565;-74
2021/03/19 11:32:08;;;;;;;4.93;4.47;;;7.80;77.70;;;;;;4933360;28;20346;-74
2021/03/19 11:34:55;;;;;;;5.00;4.15;;;7.80;77.40;;;;;;4956847;28;20114;-74
2021/03/19 11:37:25;;;;;;;4.97;4.43;;;7.90;76.20;;;;;;4957900;28;20061;-75
2021/03/19 11:42:18;;;;;;;6.75;5.03;;;8.50;76.20;;;;;;4957467;28;20030;-74
2021/03/19 11:44:51;;;;;;;4.85;4.45;;;8.80;77.30;;;;;;4963749;28;20115;-73
2021/03/19 11:47:31;;;;;;;5.20;4.70;;;9.20;77.10;;;;;;4956657;28;20031;-74
2021/03/19 11:50:21;;;;;;;5.13;4.65;;;9.10;73.80;;;;;;4959681;28;20050;-74
2021/03/19 11:52:57;;;;;;;6.30;4.88;;;9.30;75.70;;;;;;4926319;28;20134;-75
2021/03/19 11:55:45;;;;;;;6.47;4.90;;;9.20;73.00;;;;;;4960129;28;20042;-74
2021/03/19 11:58:13;;;;;;;5.97;4.88;;;9.30;72.90;;;;;;4933476;29;20032;-74
2021/03/19 12:00:40;;;;;;;4.53;4.15;;;9.60;74.70;;;;;;4949317;28;20038;-73
2021/03/19 12:03:12;;;;;;;4.20;3.80;;;9.60;71.80;;;;;;4935193;29;20845;-74
2021/03/19 12:05:39;;;;;;;4.45;4.05;;;9.60;67.60;;;;;;4951154;28;20114;-74
2021/03/19 12:08:05;;;;;;;4.55;3.97;;;9.70;67.90;;;;;;4937462;29;20482;-74
2021/03/19 12:10:31;;;;;;;4.22;3.50;;;9.90;68.00;;;;;;4959199;28;20106;-74
2021/03/19 12:13:03;;;;;;;4.20;3.83;;;9.80;66.50;;;;;;4961926;28;20050;-74
2021/03/19 12:15:31;;;;;;;4.10;3.78;;;10.00;65.90;;;;;;4945458;29;20027;-78
2021/03/19 12:17:57;;;;;;;4.88;3.38;;;10.00;63.70;;;;;;4940631;29;20038;-78
2021/03/19 12:20:23;;;;;;;6.03;3.60;;;10.10;62.90;;;;;;4957989;29;20537;-78
2021/03/19 12:22:49;;;;;;;5.07;3.78;;;10.00;59.50;;;;;;4966913;28;20379;-78
2021/03/19 12:25:20;;;;;;;4.03;3.70;;;10.10;60.00;;;;;;4964519;28;20035;-73
2021/03/19 12:27:46;;;;;;;5.00;3.63;;;10.20;59.80;;;;;;4944712;29;20023;-74
2021/03/19 12:30:14;;;;;;;4.32;3.88;;;10.40;61.40;;;;;;4945982;28;20031;-73
2021/03/19 12:32:39;;;;;;;3.67;3.45;;;10.60;58.20;;;;;;4945750;29;20031;-74
2021/03/19 12:35:05;;;;;;;5.00;3.70;;;10.70;59.90;;;;;;4963514;28;20023;-73
2021/03/19 12:37:31;;;;;;;3.75;3.45;;;10.70;58.40;;;;;;4956789;28;20036;-74
2021/03/19 12:39:57;;;;;;;4.10;3.70;;;10.70;57.30;;;;;;4956292;28;20495;-75
2021/03/19 12:42:23;;;;;;;4.03;3.10;;;10.90;56.30;;;;;;4943178;28;20115;-74
2021/03/19 12:44:49;;;;;;;3.10;2.88;;;11.30;57.10;;;;;;4959188;28;20413;-74
2021/03/19 12:47:15;;;;;;;3.70;3.40;;;11.60;55.90;;;;;;4960395;28;20030;-74
2021/03/19 12:49:40;;;;;;;3.72;3.30;;;11.70;54.50;;;;;;4962593;28;20490;-74
2021/03/19 12:52:06;;;;;;;3.70;3.45;;;11.90;54.00;;;;;;4970011;28;20034;-74
2021/03/19 12:54:32;;;;;;;4.68;3.50;;;11.90;52.10;;;;;;4959483;28;20101;-74
2021/03/19 12:56:58;;;;;;;3.70;3.40;;;11.90;53.50;;;;;;4948347;28;20026;-74
2021/03/19 12:59:24;;;;;;;3.33;3.13;;;12.10;51.20;;;;;;4934747;28;20127;-74
2021/03/19 13:01:50;;;;;;;3.90;3.50;;;12.20;50.60;;;;;;4940959;28;20407;-74
2021/03/19 13:04:15;;;;;;;3.35;3.15;;;12.40;52.20;;;;;;4962767;28;20015;-74
2021/03/19 13:06:41;;;;;;;3.35;3.00;;;12.50;49.40;;;;;;4958644;28;20015;-73
2021/03/19 13:09:11;;;;;;;4.10;3.45;;;12.60;49.80;;;;;;4958091;28;20094;-73
2021/03/19 13:11:37;;;;;;;3.83;3.22;;;12.60;50.20;;;;;;4963825;28;20070;-73
2021/03/19 13:14:03;;;;;;;8.38;4.13;;;12.70;49.20;;;;;;4952117;28;20106;-73
2021/03/19 13:16:28;;;;;;;3.53;3.22;;;12.50;48.90;;;;;;4949567;28;20035;-73
2021/03/19 13:18:54;;;;;;;4.90;3.80;;;12.50;50.20;;;;;;4957585;28;20027;-78
2021/03/19 13:21:20;;;;;;;6.22;3.42;;;12.70;50.90;;;;;;4958057;28;20109;-78
2021/03/19 13:23:47;;;;;;;3.55;3.25;;;12.80;52.30;;;;;;4952774;28;20752;-79
2021/03/19 13:26:12;;;;;;;4.60;3.55;;;12.80;48.10;;;;;;4957375;28;20096;-78
2021/03/19 13:28:38;;;;;;;3.40;3.10;;;12.70;46.10;;;;;;4952871;28;20027;-77
2021/03/19 13:31:04;;;;;;;6.05;3.67;;;12.80;47.90;;;;;;4952696;28;20106;-77
2021/03/19 13:33:31;;;;;;;3.88;3.58;;;12.60;48.40;;;;;;4964819;28;20385;-77
2021/03/19 13:35:59;;;;;;;3.80;3.47;;;12.70;49.90;;;;;;4959368;28;20034;-78